DFW Logo
DALLAS/FORT WORTH METROPLEX WEATHER
70°F
DFW AIRPORT OBSERVATIONS
WINDPRESSURE
STATIONDATETIMETEMPDEWRHWCHIDIRSPEEDVISIBILITYWEATHERCLOUDSSLSTALTRAINFLIGHT RULES
(F)(F)(%)(F)(F)(mph)(miles)(x100 ft)(mb)(inHg)(inHg)(in)
KDFW5/18/20243:53 am706584S610.00ClearCLR0 1008.0029.2129.790.00VFR
KDFW5/18/20242:53 am716581SSW710.00ClearCLR0 1007.9029.2129.790.00VFR
KDFW5/18/20241:53 am726579SW610.00ClearCLR0 1008.5029.2329.810.00VFR
KDFW5/18/202412:53 am736371Calm10.00Mostly ClearFEW250 1008.3029.2229.800.00VFR
Updated: May 18, 2024 - 3:53 am

STATIONDATETIMEMETAR
KDFW5/18/20243:53 amKDFW 180853Z 19005KT 10SM CLR 21/18 A2979 RMK AO2 SLP080 T02110183 58003
KDFW5/18/20242:53 amKDFW 180753Z 21006KT 10SM CLR 22/18 A2979 RMK AO2 SLP079 T02170183
KDFW5/18/20241:53 amKDFW 180653Z 22005KT 10SM CLR 22/18 A2981 RMK AO2 SLP085 T02220183
KDFW5/18/202412:53 amKDFW 180553Z 00000KT 10SM FEW250 23/17 A2980 RMK AO2 SLP083 T02280172 10283 20222 402940172 51014
Updated: May 18, 2024 - 3:53 am